Terminal Aerodrome Forecast
Issued by NWS St Louis, MO

Home | Current Version | Previous Version | Text Only | Print | Product List | Glossary On
Versions: 1 2 3 4 5 6 7 8 9 10 11 12 13 14 15 16 17 18 19 20 21 22 23 24 25 26 27 28
679
FTUS43 KLSX 271957 AAA
TAFSTL
TAF AMD
KSTL 271957Z 2720/2824 17011G18KT P6SM BKN040
     FM272100 17013G21KT P6SM -SHRA VCTS BKN040CB OVC100
     FM280100 17011KT P6SM VCSH BKN050
     FM280900 17012KT P6SM OVC070=

USA.gov is the U.S. government's official web portal to all federal, state and local government web resources and services.